createdAt,value
2017-01-23T00:00:58.405Z,-3.64
2017-01-23T00:01:58.527Z,-3.83
2017-01-23T00:02:58.507Z,-3.81
2017-01-23T00:03:58.447Z,-3.83
2017-01-23T00:04:58.548Z,-3.9
2017-01-23T00:05:58.295Z,-3.71
2017-01-23T00:06:58.341Z,-3.87
2017-01-23T00:07:58.525Z,-3.86
2017-01-23T00:08:58.328Z,-3.91
2017-01-23T00:09:58.471Z,-3.9
2017-01-23T00:10:58.373Z,-3.83
2017-01-23T00:11:58.366Z,-3.9
2017-01-23T00:12:58.321Z,-4.04
2017-01-23T00:13:58.393Z,-3.86
2017-01-23T00:14:58.375Z,-3.86
2017-01-23T00:15:58.461Z,-4.04
2017-01-23T00:16:58.489Z,-3.91
2017-01-23T00:17:58.479Z,-4.04
2017-01-23T00:18:58.314Z,-3.9
2017-01-23T00:19:58.317Z,-3.98
2017-01-23T00:20:58.317Z,-4.09
2017-01-23T00:21:58.332Z,-3.98
2017-01-23T00:22:58.395Z,-4.09
2017-01-23T00:23:58.298Z,-4.22
2017-01-23T00:24:58.347Z,-4.02
2017-01-23T00:25:58.313Z,-4.23
2017-01-23T00:26:58.342Z,-4.08
2017-01-23T00:27:58.346Z,-4.07
2017-01-23T00:28:58.366Z,-4.2
2017-01-23T00:29:58.427Z,-4.23
2017-01-23T00:30:58.313Z,-4.3
2017-01-23T00:31:58.433Z,-4.37
2017-01-23T00:32:58.341Z,-4.19
2017-01-23T00:33:58.315Z,-4.29
2017-01-23T00:34:58.332Z,-4.38
2017-01-23T00:35:58.315Z,-4.25
2017-01-23T00:36:58.384Z,-4.33
2017-01-23T00:37:58.323Z,-4.28
2017-01-23T00:38:58.307Z,-4.37
2017-01-23T00:39:58.564Z,-4.4
2017-01-23T00:40:58.424Z,-4.44
2017-01-23T00:41:58.354Z,-4.38
2017-01-23T00:42:58.330Z,-4.43
2017-01-23T00:43:58.498Z,-4.4
2017-01-23T00:44:58.438Z,-4.5
2017-01-23T00:45:58.377Z,-4.4
2017-01-23T00:46:58.337Z,-4.47
2017-01-23T00:47:58.321Z,-4.54
2017-01-23T00:48:58.458Z,-4.43
2017-01-23T00:49:58.520Z,-4.55
2017-01-23T00:50:58.472Z,-4.58
2017-01-23T00:51:58.389Z,-4.55
2017-01-23T00:52:58.341Z,-4.58
2017-01-23T00:53:58.381Z,-4.59
2017-01-23T00:54:58.314Z,-4.68
2017-01-23T00:55:58.376Z,-4.82
2017-01-23T00:56:58.331Z,-4.66
2017-01-23T00:57:58.377Z,-4.76
2017-01-23T00:58:58.448Z,-4.89
2017-01-23T00:59:58.327Z,-4.79
2017-01-23T01:00:58.340Z,-4.85
2017-01-23T01:01:58.340Z,-4.98
2017-01-23T01:02:58.318Z,-4.97
2017-01-23T01:03:58.341Z,-4.93
2017-01-23T01:04:58.334Z,-4.94
2017-01-23T01:05:58.423Z,-5.03
2017-01-23T01:06:58.346Z,-4.94
2017-01-23T01:07:58.449Z,-5.04
2017-01-23T01:08:58.374Z,-5.03
2017-01-23T01:09:58.421Z,-5
2017-01-23T01:10:58.335Z,-5.03
2017-01-23T01:11:58.448Z,-5.08
2017-01-23T01:12:58.572Z,-5.05
2017-01-23T01:13:58.329Z,-5.11
2017-01-23T01:14:58.340Z,-4.94
2017-01-23T01:15:58.332Z,-4.91
2017-01-23T01:16:58.332Z,-4.86
2017-01-23T01:17:58.362Z,-4.8
2017-01-23T01:18:58.321Z,-4.77
2017-01-23T01:19:58.326Z,-4.97
2017-01-23T01:20:58.483Z,-4.95
2017-01-23T01:21:58.341Z,-4.89
2017-01-23T01:22:58.338Z,-4.97
2017-01-23T01:23:58.337Z,-4.94
2017-01-23T01:24:58.336Z,-4.86
2017-01-23T01:25:58.357Z,-4.8
2017-01-23T01:26:58.346Z,-4.93
2017-01-23T01:27:58.323Z,-4.85
2017-01-23T01:28:58.402Z,-4.83
2017-01-23T01:29:58.325Z,-4.85
2017-01-23T01:30:58.467Z,-4.83
2017-01-23T01:31:58.583Z,-4.91
2017-01-23T01:32:58.472Z,-4.94
2017-01-23T01:33:58.398Z,-4.89
2017-01-23T01:34:58.360Z,-4.98
2017-01-23T01:35:58.345Z,-4.83
2017-01-23T01:36:58.358Z,-5.01
2017-01-23T01:37:58.350Z,-4.91
2017-01-23T01:38:58.425Z,-4.97
2017-01-23T01:39:58.354Z,-5.05
2017-01-23T01:40:58.448Z,-4.89
2017-01-23T01:41:58.374Z,-5.03
2017-01-23T01:42:58.340Z,-4.93
2017-01-23T01:43:58.362Z,-5.03
2017-01-23T01:44:58.464Z,-4.95
2017-01-23T01:45:58.500Z,-4.86
2017-01-23T01:46:58.366Z,-4.94
2017-01-23T01:47:58.373Z,-4.93
2017-01-23T01:48:58.359Z,-4.91
2017-01-23T01:49:58.382Z,-4.87
2017-01-23T01:50:58.355Z,-4.87
2017-01-23T01:51:58.368Z,-4.85
2017-01-23T01:52:58.361Z,-5
2017-01-23T01:53:58.454Z,-5
2017-01-23T01:54:58.390Z,-4.89
2017-01-23T01:55:58.406Z,-4.95
2017-01-23T01:56:58.348Z,-4.83
2017-01-23T01:57:58.382Z,-4.98
2017-01-23T01:58:58.520Z,-4.87
2017-01-23T01:59:58.362Z,-4.93
2017-01-23T02:00:58.502Z,-4.97
2017-01-23T02:01:58.336Z,-4.85
2017-01-23T02:02:58.352Z,-4.73
2017-01-23T02:03:58.376Z,-4.94
2017-01-23T02:04:58.354Z,-4.8
2017-01-23T02:05:58.350Z,-4.82
2017-01-23T02:06:58.523Z,-4.8
2017-01-23T02:07:58.366Z,-4.91
2017-01-23T02:08:58.367Z,-4.77
2017-01-23T02:09:58.353Z,-4.8
2017-01-23T02:10:58.360Z,-4.73
2017-01-23T02:11:58.407Z,-4.68
2017-01-23T02:12:58.374Z,-4.8
2017-01-23T02:13:58.419Z,-4.8
2017-01-23T02:14:58.534Z,-4.86
2017-01-23T02:15:58.353Z,-4.89
2017-01-23T02:16:58.371Z,-4.65
2017-01-23T02:17:58.369Z,-4.75
2017-01-23T02:18:58.357Z,-4.86
2017-01-23T02:19:58.375Z,-4.77
2017-01-23T02:20:58.366Z,-4.79
2017-01-23T02:21:58.380Z,-4.8
2017-01-23T02:22:58.379Z,-4.85
2017-01-23T02:23:58.360Z,-4.85
2017-01-23T02:24:58.385Z,-4.73
2017-01-23T02:25:58.396Z,-4.8
2017-01-23T02:26:58.401Z,-4.77
2017-01-23T02:27:58.372Z,-4.79
2017-01-23T02:28:58.370Z,-4.83
2017-01-23T02:29:58.376Z,-4.73
2017-01-23T02:30:58.458Z,-4.85
2017-01-23T02:31:58.407Z,-4.87
2017-01-23T02:32:58.377Z,-4.64
2017-01-23T02:33:58.385Z,-4.79
2017-01-23T02:34:58.452Z,-4.64
2017-01-23T02:35:58.489Z,-4.76
2017-01-23T02:36:58.434Z,-4.71
2017-01-23T02:37:58.377Z,-4.73
2017-01-23T02:38:58.506Z,-4.64
2017-01-23T02:39:58.424Z,-4.61
2017-01-23T02:40:58.365Z,-4.58
2017-01-23T02:41:58.396Z,-4.64
2017-01-23T02:42:58.397Z,-4.64
2017-01-23T02:43:58.397Z,-4.55
2017-01-23T02:44:58.376Z,-4.64
2017-01-23T02:45:58.372Z,-4.48
2017-01-23T02:46:58.387Z,-4.59
2017-01-23T02:47:58.385Z,-4.57
2017-01-23T02:48:58.404Z,-4.46
2017-01-23T02:49:58.462Z,-4.44
2017-01-23T02:50:58.406Z,-4.47
2017-01-23T02:51:58.415Z,-4.37
2017-01-23T02:52:58.381Z,-4.33
2017-01-23T02:53:58.441Z,-4.33
2017-01-23T02:54:58.394Z,-4.5
2017-01-23T02:55:58.434Z,-4.33
2017-01-23T02:56:58.425Z,-4.41
2017-01-23T02:57:58.508Z,-4.29
2017-01-23T02:58:58.381Z,-4.43
2017-01-23T02:59:58.390Z,-4.26
2017-01-23T03:00:58.385Z,-4.23
2017-01-23T03:01:58.399Z,-4.32
2017-01-23T03:02:58.395Z,-4.14
2017-01-23T03:03:58.438Z,-4.23
2017-01-23T03:04:58.470Z,-4.22
2017-01-23T03:05:58.425Z,-4.11
2017-01-23T03:06:58.378Z,-4.08
2017-01-23T03:07:58.400Z,-4.19
2017-01-23T03:08:58.386Z,-4.15
2017-01-23T03:09:58.402Z,-4.18
2017-01-23T03:10:58.396Z,-4.07
2017-01-23T03:11:58.426Z,-4.04
2017-01-23T03:12:58.385Z,-4.07
2017-01-23T03:13:58.478Z,-3.98
2017-01-23T03:14:58.383Z,-3.99
2017-01-23T03:15:58.419Z,-3.99
2017-01-23T03:16:58.390Z,-3.9
2017-01-23T03:17:58.403Z,-3.81
2017-01-23T03:18:58.395Z,-3.84
2017-01-23T03:19:58.401Z,-3.84
2017-01-23T03:20:58.397Z,-3.81
2017-01-23T03:21:58.407Z,-3.75
2017-01-23T03:22:58.398Z,-3.87
2017-01-23T03:23:58.410Z,-3.86
2017-01-23T03:24:58.402Z,-3.81
2017-01-23T03:25:58.467Z,-3.83
2017-01-23T03:26:58.405Z,-3.72
2017-01-23T03:27:58.398Z,-3.68
2017-01-23T03:28:58.397Z,-3.72
2017-01-23T03:29:58.423Z,-3.75
2017-01-23T03:30:58.399Z,-3.67
2017-01-23T03:31:58.406Z,-3.89
2017-01-23T03:32:58.431Z,-3.75
2017-01-23T03:33:58.387Z,-3.75
2017-01-23T03:34:58.420Z,-3.53
2017-01-23T03:35:58.411Z,-3.72
2017-01-23T03:36:58.421Z,-3.62
2017-01-23T03:37:58.409Z,-3.54
2017-01-23T03:38:58.402Z,-3.68
2017-01-23T03:39:58.417Z,-3.53
2017-01-23T03:40:58.424Z,-3.56
2017-01-23T03:41:58.416Z,-3.54
2017-01-23T03:42:58.417Z,-3.38
2017-01-23T03:43:58.421Z,-3.47
2017-01-23T03:44:58.414Z,-3.54
2017-01-23T03:45:58.415Z,-3.49
2017-01-23T03:46:58.411Z,-3.38
2017-01-23T03:47:58.410Z,-3.39
2017-01-23T03:48:58.431Z,-3.41
2017-01-23T03:49:58.420Z,-3.41
2017-01-23T03:50:58.426Z,-3.36
2017-01-23T03:51:58.446Z,-3.38
2017-01-23T03:52:58.423Z,-3.43
2017-01-23T03:53:58.421Z,-3.35
2017-01-23T03:54:58.436Z,-3.35
2017-01-23T03:55:58.414Z,-3.39
2017-01-23T03:56:58.457Z,-3.41
2017-01-23T03:57:58.423Z,-3.38
2017-01-23T03:58:58.419Z,-3.47
2017-01-23T03:59:58.423Z,-3.35
2017-01-23T04:00:58.410Z,-3.33
2017-01-23T04:01:58.426Z,-3.36
2017-01-23T04:02:58.425Z,-3.29
2017-01-23T04:03:58.413Z,-3.53
2017-01-23T04:04:58.439Z,-3.32
2017-01-23T04:05:58.430Z,-3.32
2017-01-23T04:06:58.421Z,-3.35
2017-01-23T04:07:58.461Z,-3.35
2017-01-23T04:08:58.460Z,-3.29
2017-01-23T04:09:58.434Z,-3.33
2017-01-23T04:10:58.409Z,-3.18
2017-01-23T04:11:58.442Z,-3.35
2017-01-23T04:12:58.438Z,-3.35
2017-01-23T04:13:58.434Z,-3.23
2017-01-23T04:14:58.421Z,-3.2
2017-01-23T04:15:58.465Z,-3.29
2017-01-23T04:16:58.433Z,-3.22
2017-01-23T04:17:58.439Z,-3.17
2017-01-23T04:18:58.428Z,-3.17
2017-01-23T04:19:58.434Z,-3.2
2017-01-23T04:20:58.445Z,-3
2017-01-23T04:21:58.435Z,-3.17
2017-01-23T04:22:58.439Z,-3.1
2017-01-23T04:23:58.429Z,-3.13
2017-01-23T04:24:58.446Z,-3.11
2017-01-23T04:25:58.446Z,-3.13
2017-01-23T04:26:58.448Z,-3.04
2017-01-23T04:27:58.439Z,-2.96
2017-01-23T04:28:58.453Z,-2.96
2017-01-23T04:29:58.440Z,-2.96
2017-01-23T04:30:58.442Z,-2.99
2017-01-23T04:31:58.458Z,-2.94
2017-01-23T04:32:58.446Z,-2.96
2017-01-23T04:33:58.440Z,-2.9
2017-01-23T04:34:58.437Z,-2.89
2017-01-23T04:35:58.447Z,-2.87
2017-01-23T04:36:58.447Z,-2.97
2017-01-23T04:37:58.447Z,-3.04
2017-01-23T04:38:58.447Z,-2.87
2017-01-23T04:39:58.473Z,-2.97
2017-01-23T04:40:58.452Z,-2.99
2017-01-23T04:41:58.460Z,-2.97
2017-01-23T04:42:58.445Z,-3.04
2017-01-23T04:43:58.451Z,-2.82
2017-01-23T04:44:58.484Z,-2.92
2017-01-23T04:45:58.453Z,-2.9
2017-01-23T04:46:58.458Z,-2.92
2017-01-23T04:47:58.476Z,-2.81
2017-01-23T04:48:58.476Z,-2.85
2017-01-23T04:49:58.477Z,-2.99
2017-01-23T04:50:58.498Z,-2.87
2017-01-23T04:51:58.479Z,-2.89
2017-01-23T04:52:58.468Z,-3.05
2017-01-23T04:53:58.478Z,-2.97
2017-01-23T04:54:58.493Z,-2.86
2017-01-23T04:55:58.458Z,-2.92
2017-01-23T04:56:58.485Z,-2.9
2017-01-23T04:57:58.463Z,-2.9
2017-01-23T04:58:58.467Z,-2.97
2017-01-23T04:59:58.494Z,-2.85
2017-01-23T05:00:58.504Z,-2.82
2017-01-23T05:01:58.502Z,-2.81
2017-01-23T05:02:58.491Z,-2.86
2017-01-23T05:03:58.486Z,-2.86
2017-01-23T05:04:58.466Z,-2.94
2017-01-23T05:05:58.466Z,-2.82
2017-01-23T05:06:58.460Z,-2.79
2017-01-23T05:07:58.467Z,-2.86
2017-01-23T05:08:58.449Z,-2.79
2017-01-23T05:09:58.473Z,-2.76
2017-01-23T05:10:58.460Z,-2.81
2017-01-23T05:11:58.457Z,-2.82
2017-01-23T05:12:58.480Z,-2.86
2017-01-23T05:13:58.480Z,-2.74
2017-01-23T05:14:58.463Z,-2.79
2017-01-23T05:15:58.491Z,-2.71
2017-01-23T05:16:58.469Z,-2.72
2017-01-23T05:17:58.462Z,-2.72
2017-01-23T05:18:58.465Z,-2.54
2017-01-23T05:19:58.469Z,-2.71
2017-01-23T05:20:58.484Z,-2.57
2017-01-23T05:21:58.492Z,-2.66
2017-01-23T05:22:58.456Z,-2.71
2017-01-23T05:23:58.476Z,-2.72
2017-01-23T05:24:58.467Z,-2.6
2017-01-23T05:25:58.480Z,-2.56
2017-01-23T05:26:58.507Z,-2.69
2017-01-23T05:27:58.492Z,-2.64
2017-01-23T05:28:58.470Z,-2.56
2017-01-23T05:29:58.510Z,-2.45
2017-01-23T05:30:58.480Z,-2.56
2017-01-23T05:31:58.490Z,-2.57
2017-01-23T05:32:58.483Z,-2.5
2017-01-23T05:33:58.475Z,-2.57
2017-01-23T05:34:58.481Z,-2.6
2017-01-23T05:35:58.501Z,-2.5
2017-01-23T05:36:58.481Z,-2.54
2017-01-23T05:37:58.525Z,-2.54
2017-01-23T05:38:58.485Z,-2.42
2017-01-23T05:39:58.470Z,-2.54
2017-01-23T05:40:58.477Z,-2.51
2017-01-23T05:41:58.475Z,-2.42
2017-01-23T05:42:58.482Z,-2.45
2017-01-23T05:43:58.481Z,-2.43
2017-01-23T05:44:58.496Z,-2.5
2017-01-23T05:45:58.503Z,-2.57
2017-01-23T05:46:58.497Z,-2.33
2017-01-23T05:47:58.489Z,-2.38
2017-01-23T05:48:58.496Z,-2.4
2017-01-23T05:49:58.480Z,-2.4
2017-01-23T05:50:58.507Z,-2.47
2017-01-23T05:51:58.471Z,-2.38
2017-01-23T05:52:58.498Z,-2.45
2017-01-23T05:53:58.495Z,-2.38
2017-01-23T05:54:58.493Z,-2.5
2017-01-23T05:55:58.514Z,-2.36
2017-01-23T05:56:58.505Z,-2.32
2017-01-23T05:57:58.522Z,-2.26
2017-01-23T05:58:58.493Z,-2.35
2017-01-23T05:59:58.497Z,-2.29
2017-01-23T06:00:58.500Z,-2.47
2017-01-23T06:01:58.509Z,-2.28
2017-01-23T06:02:58.485Z,-2.2
2017-01-23T06:03:58.501Z,-2.14
2017-01-23T06:04:58.495Z,-2.29
2017-01-23T06:05:58.505Z,-2.29
2017-01-23T06:06:58.519Z,-2.29
2017-01-23T06:07:58.498Z,-2.17
2017-01-23T06:08:58.500Z,-2.24
2017-01-23T06:09:58.522Z,-2.16
2017-01-23T06:10:58.503Z,-2.28
2017-01-23T06:11:58.509Z,-2.16
2017-01-23T06:12:58.502Z,-2.2
2017-01-23T06:13:58.545Z,-2.17
2017-01-23T06:14:58.511Z,-2.13
2017-01-23T06:15:58.519Z,-2.06
2017-01-23T06:16:58.516Z,-2.1
2017-01-23T06:17:58.504Z,-2.03
2017-01-23T06:18:58.514Z,-2.17
2017-01-23T06:19:58.508Z,-2.13
2017-01-23T06:20:58.496Z,-2.16
2017-01-23T06:21:58.510Z,-2.13
2017-01-23T06:22:58.518Z,-2.1
2017-01-23T06:23:58.514Z,-2.13
2017-01-23T06:24:58.503Z,-2.1
2017-01-23T06:25:58.530Z,-2.03
2017-01-23T06:26:58.506Z,-2
2017-01-23T06:27:58.529Z,-1.98
2017-01-23T06:28:58.527Z,-1.96
2017-01-23T06:29:58.510Z,-2.1
2017-01-23T06:30:58.517Z,-1.9
2017-01-23T06:31:58.507Z,-1.88
2017-01-23T06:32:58.493Z,-1.96
2017-01-23T06:33:58.508Z,-1.88
2017-01-23T06:34:58.514Z,-1.88
2017-01-23T06:35:58.596Z,-1.88
2017-01-23T06:36:58.529Z,-1.82
2017-01-23T06:37:58.497Z,-1.88
2017-01-23T06:38:58.537Z,-1.81
2017-01-23T06:39:58.529Z,-1.77
2017-01-23T06:40:58.519Z,-1.99
2017-01-23T06:41:58.531Z,-1.88
2017-01-23T06:42:58.523Z,-1.87
2017-01-23T06:43:58.520Z,-1.92
2017-01-23T06:44:58.526Z,-1.95
2017-01-23T06:45:58.541Z,-1.82
2017-01-23T06:46:58.529Z,-1.8
2017-01-23T06:47:58.542Z,-1.78
2017-01-23T06:48:58.537Z,-1.93
2017-01-23T06:49:58.528Z,-1.81
2017-01-23T06:50:58.518Z,-1.84
2017-01-23T06:51:58.512Z,-1.81
2017-01-23T06:52:58.527Z,-1.85
2017-01-23T06:53:58.524Z,-1.78
2017-01-23T06:54:58.538Z,-1.8
2017-01-23T06:55:58.532Z,-1.9
2017-01-23T06:56:58.515Z,-1.85
2017-01-23T06:57:58.520Z,-1.78
2017-01-23T06:58:58.513Z,-1.8
2017-01-23T06:59:58.522Z,-1.8
2017-01-23T07:00:58.531Z,-1.69
2017-01-23T07:01:58.520Z,-1.78
2017-01-23T07:02:58.562Z,-1.74
2017-01-23T07:03:58.551Z,-1.66
2017-01-23T07:04:58.511Z,-1.82
2017-01-23T07:05:58.510Z,-1.75
2017-01-23T07:06:58.533Z,-1.56
2017-01-23T07:07:58.515Z,-1.82
2017-01-23T07:08:58.547Z,-1.8
2017-01-23T07:09:58.537Z,-1.74
2017-01-23T07:10:58.528Z,-1.74
2017-01-23T07:11:58.542Z,-1.77
2017-01-23T07:12:58.531Z,-1.77
2017-01-23T07:13:58.541Z,-1.77
2017-01-23T07:14:58.529Z,-1.63
2017-01-23T07:15:58.547Z,-1.66
2017-01-23T07:16:58.535Z,-1.63
2017-01-23T07:17:58.544Z,-1.63
2017-01-23T07:18:58.590Z,-1.6
2017-01-23T07:19:58.574Z,-1.64
2017-01-23T07:20:58.545Z,-1.54
2017-01-23T07:21:58.564Z,-1.62
2017-01-23T07:22:58.559Z,-1.46
2017-01-23T07:23:58.546Z,-1.54
2017-01-23T07:24:58.544Z,-1.57
2017-01-23T07:25:58.573Z,-1.63
2017-01-23T07:26:58.566Z,-1.51
2017-01-23T07:27:58.533Z,-1.43
2017-01-23T07:28:58.539Z,-1.45
2017-01-23T07:29:58.562Z,-1.53
2017-01-23T07:30:58.541Z,-1.46
2017-01-23T07:31:58.556Z,-1.45
2017-01-23T07:32:58.579Z,-1.36
2017-01-23T07:33:58.566Z,-1.33
2017-01-23T07:34:58.657Z,-1.36
2017-01-23T07:35:58.599Z,-1.41
2017-01-23T07:36:58.569Z,-1.36
2017-01-23T07:37:58.621Z,-1.33
2017-01-23T07:38:58.553Z,-1.28
2017-01-23T07:39:58.561Z,-1.27
2017-01-23T07:40:58.582Z,-1.3
2017-01-23T07:41:58.546Z,-1.17
2017-01-23T07:42:58.576Z,-1.31
2017-01-23T07:43:58.551Z,-1.17
2017-01-23T07:44:58.637Z,-1.2
2017-01-23T07:45:58.584Z,-1.17
2017-01-23T07:46:58.608Z,-1.27
2017-01-23T07:47:58.783Z,-1.2
2017-01-23T07:48:58.678Z,-1.13
2017-01-23T07:49:58.546Z,-1.21
2017-01-23T07:50:58.590Z,-1.03
2017-01-23T07:51:58.639Z,-1.09
2017-01-23T07:52:58.592Z,-1.12
2017-01-23T07:53:58.542Z,-1.15
2017-01-23T07:54:59.566Z,-1.03
2017-01-23T07:55:59.258Z,-1.02
2017-01-23T07:56:58.550Z,-0.99
2017-01-23T07:57:58.579Z,-1.09
2017-01-23T07:58:58.614Z,-1.15
2017-01-23T07:59:58.589Z,-1.07
2017-01-23T08:00:58.601Z,-1.05
2017-01-23T08:01:58.579Z,-0.99
2017-01-23T08:02:58.594Z,-0.91
2017-01-23T08:03:58.682Z,-1
2017-01-23T08:04:58.602Z,-0.99
2017-01-23T08:05:58.592Z,-0.97
2017-01-23T08:06:58.602Z,-0.87
2017-01-23T08:07:58.580Z,-0.94
2017-01-23T08:08:58.602Z,-0.97
2017-01-23T08:09:58.608Z,-0.99
2017-01-23T08:10:58.570Z,-0.77
2017-01-23T08:11:58.706Z,-1.05
2017-01-23T08:12:58.584Z,-0.81
2017-01-23T08:13:58.581Z,-1.05
2017-01-23T08:14:58.566Z,-0.89
2017-01-23T08:15:58.602Z,-0.92
2017-01-23T08:16:58.566Z,-0.94
2017-01-23T08:17:58.584Z,-0.84
2017-01-23T08:18:58.552Z,-0.77
2017-01-23T08:19:58.589Z,-0.75
2017-01-23T08:20:58.570Z,-0.83
2017-01-23T08:21:58.583Z,-0.83
2017-01-23T08:22:58.750Z,-0.77
2017-01-23T08:23:58.574Z,-0.8
2017-01-23T08:24:58.589Z,-0.84
2017-01-23T08:25:58.576Z,-0.73
2017-01-23T08:26:58.584Z,-0.81
2017-01-23T08:27:58.578Z,-0.86
2017-01-23T08:28:58.565Z,-0.75
2017-01-23T08:29:58.581Z,-0.83
2017-01-23T08:30:58.721Z,-0.91
2017-01-23T08:31:58.684Z,-0.72
2017-01-23T08:32:58.614Z,-0.84
2017-01-23T08:33:58.594Z,-0.86
2017-01-23T08:34:58.632Z,-0.78
2017-01-23T08:35:58.580Z,-0.89
2017-01-23T08:36:58.585Z,-0.69
2017-01-23T08:37:58.603Z,-0.83
2017-01-23T08:38:58.595Z,-0.86
2017-01-23T08:39:58.588Z,-0.7
2017-01-23T08:40:58.626Z,-0.73
2017-01-23T08:41:58.573Z,-0.7
2017-01-23T08:42:58.588Z,-0.83
2017-01-23T08:43:58.587Z,-0.75
2017-01-23T08:44:58.595Z,-0.86
2017-01-23T08:45:58.636Z,-0.69
2017-01-23T08:46:58.586Z,-0.6
2017-01-23T08:47:58.577Z,-0.66
2017-01-23T08:48:58.581Z,-0.84
2017-01-23T08:49:58.668Z,-0.68
2017-01-23T08:50:58.612Z,-0.72
2017-01-23T08:51:58.590Z,-0.73
2017-01-23T08:52:58.837Z,-0.72
2017-01-23T08:53:58.706Z,-0.59
2017-01-23T08:54:58.590Z,-0.63
2017-01-23T08:55:58.659Z,-0.75
2017-01-23T08:56:58.599Z,-0.62
2017-01-23T08:57:58.629Z,-0.62
2017-01-23T08:58:58.587Z,-0.66
2017-01-23T08:59:58.602Z,-0.69
2017-01-23T09:00:58.588Z,-0.65
2017-01-23T09:01:58.632Z,-0.69
2017-01-23T09:02:58.652Z,-0.66
2017-01-23T09:03:58.615Z,-0.57
2017-01-23T09:04:58.629Z,-0.59
2017-01-23T09:05:58.658Z,-0.45
2017-01-23T09:06:58.592Z,-0.55
2017-01-23T09:07:58.632Z,-0.54
2017-01-23T09:08:58.868Z,-0.54
2017-01-23T09:09:58.644Z,-0.48
2017-01-23T09:10:58.602Z,-0.51
2017-01-23T09:11:58.597Z,-0.6
2017-01-23T09:12:58.603Z,-0.45
2017-01-23T09:13:58.627Z,-0.48
2017-01-23T09:14:58.602Z,-0.34
2017-01-23T09:15:58.612Z,-0.36
2017-01-23T09:16:58.690Z,-0.41
2017-01-23T09:17:58.741Z,-0.47
2017-01-23T09:18:58.602Z,-0.34
2017-01-23T09:19:58.608Z,-0.34
2017-01-23T09:20:58.602Z,-0.44
2017-01-23T09:21:58.700Z,-0.33
2017-01-23T09:22:58.617Z,-0.29
2017-01-23T09:23:58.621Z,-0.24
2017-01-23T09:24:58.645Z,-0.24
2017-01-23T09:25:58.588Z,-0.22
2017-01-23T09:26:58.610Z,-0.13
2017-01-23T09:27:58.628Z,-0.16
2017-01-23T09:28:58.611Z,-0.19
2017-01-23T09:29:58.615Z,-0.16
2017-01-23T09:30:58.644Z,-0.11
2017-01-23T09:31:58.617Z,-0.05
2017-01-23T09:32:58.669Z,-0.08
2017-01-23T09:33:58.601Z,-0.15
2017-01-23T09:34:58.745Z,-0.16
2017-01-23T09:35:58.602Z,-0.09
2017-01-23T09:36:58.682Z,-0.22
2017-01-23T09:37:58.614Z,-0.01
2017-01-23T09:38:58.612Z,-0.15
2017-01-23T09:39:58.627Z,-0.04
2017-01-23T09:40:58.730Z,0
2017-01-23T09:41:58.628Z,-0.06
2017-01-23T09:42:58.624Z,-0.01
2017-01-23T09:43:58.629Z,0.05
2017-01-23T09:44:58.619Z,0.1
2017-01-23T09:45:58.613Z,0.1
2017-01-23T09:46:58.627Z,0.13
2017-01-23T09:47:58.621Z,0.13
2017-01-23T09:48:58.632Z,0.21
2017-01-23T09:49:58.623Z,0.12
2017-01-23T09:50:58.617Z,0.12
2017-01-23T09:51:58.705Z,0.13
2017-01-23T09:52:58.669Z,0.06
2017-01-23T09:53:58.678Z,-0.08
2017-01-23T09:54:58.686Z,0.05
2017-01-23T09:55:58.632Z,0.2
2017-01-23T09:56:58.706Z,0.03
2017-01-23T09:57:58.733Z,0.03
2017-01-23T09:58:58.622Z,0.09
2017-01-23T09:59:58.674Z,0.07
2017-01-23T10:00:58.650Z,-0.01
2017-01-23T10:01:58.612Z,0.06
2017-01-23T10:02:58.656Z,0.03
2017-01-23T10:03:58.631Z,0
2017-01-23T10:04:58.695Z,0.21
2017-01-23T10:05:58.695Z,0.09
2017-01-23T10:06:58.684Z,0.16
2017-01-23T10:07:58.636Z,0.23
2017-01-23T10:08:58.626Z,0.24
2017-01-23T10:09:58.640Z,0.24
2017-01-23T10:10:58.631Z,0.15
2017-01-23T10:11:58.641Z,0.24
2017-01-23T10:12:58.654Z,0.24
2017-01-23T10:13:58.632Z,0.28
2017-01-23T10:14:58.639Z,0.27
2017-01-23T10:22:23.960Z,0.57
2017-01-23T10:22:33.984Z,0.52
2017-01-23T10:23:33.984Z,0.46
2017-01-23T10:24:33.960Z,0.48
2017-01-23T10:25:33.963Z,0.58
2017-01-23T10:26:34.047Z,0.65
2017-01-23T10:27:34.012Z,0.68
2017-01-23T10:28:33.970Z,0.58
2017-01-23T10:29:33.993Z,0.67
2017-01-23T10:30:33.971Z,0.62
2017-01-23T10:31:33.969Z,0.71
2017-01-23T10:32:33.962Z,0.75
2017-01-23T10:33:34.003Z,0.83
2017-01-23T10:34:33.985Z,0.7
2017-01-23T10:35:33.942Z,0.82
2017-01-23T10:36:34.054Z,0.94
2017-01-23T10:37:33.994Z,0.8
2017-01-23T10:38:34.028Z,0.86
2017-01-23T10:39:33.968Z,0.96
2017-01-23T10:40:33.978Z,1
2017-01-23T10:41:33.965Z,0.94
2017-01-23T10:42:33.973Z,1.08
2017-01-23T10:43:34.037Z,1.04
2017-01-23T10:44:34.080Z,1.16
2017-01-23T10:45:33.994Z,1.12
2017-01-23T10:46:34.008Z,1.14
2017-01-23T10:47:33.989Z,1.25
2017-01-23T10:48:34.018Z,1.21
2017-01-23T10:49:33.991Z,1.24
2017-01-23T10:50:33.973Z,1.18
2017-01-23T10:51:33.984Z,1.22
2017-01-23T10:52:34.000Z,1.39
2017-01-23T10:53:33.965Z,1.42
2017-01-23T10:54:33.997Z,1.26
2017-01-23T10:55:33.966Z,1.28
2017-01-23T10:56:34.028Z,1.34
2017-01-23T10:57:33.987Z,1.26
2017-01-23T10:58:34.000Z,1.39
2017-01-23T10:59:33.975Z,1.46
2017-01-23T11:00:34.019Z,1.46
2017-01-23T11:01:33.991Z,1.39
2017-01-23T11:02:33.991Z,1.37
2017-01-23T11:03:33.999Z,1.51
2017-01-23T11:04:33.978Z,1.5
2017-01-23T11:05:33.999Z,1.58
2017-01-23T11:06:34.016Z,1.52
2017-01-23T11:07:33.999Z,1.57
2017-01-23T11:08:33.993Z,1.5
2017-01-23T11:09:33.989Z,1.6
2017-01-23T11:10:33.993Z,1.54
2017-01-23T11:11:34.006Z,1.55
2017-01-23T11:12:34.006Z,1.55
2017-01-23T11:13:33.994Z,1.6
2017-01-23T11:14:34.004Z,1.6
2017-01-23T11:15:33.988Z,1.61
2017-01-23T11:16:33.988Z,1.52
2017-01-23T11:17:34.916Z,1.57
2017-01-23T11:18:34.094Z,1.71
2017-01-23T11:19:33.996Z,1.6
2017-01-23T11:20:33.982Z,1.51
2017-01-23T11:21:33.988Z,1.58
2017-01-23T11:22:34.005Z,1.44
2017-01-23T11:23:33.974Z,1.61
2017-01-23T11:24:34.013Z,1.51
2017-01-23T11:25:34.005Z,1.5
2017-01-23T11:26:34.013Z,1.52
2017-01-23T11:27:34.018Z,1.55
2017-01-23T11:28:33.997Z,1.61
2017-01-23T11:29:33.989Z,1.51
2017-01-23T11:30:34.024Z,1.55
2017-01-23T11:31:33.983Z,1.55
2017-01-23T11:32:34.006Z,1.61
2017-01-23T11:33:34.005Z,1.64
2017-01-23T11:34:33.994Z,1.62
2017-01-23T11:35:34.057Z,1.62
2017-01-23T11:36:34.021Z,1.58
2017-01-23T11:37:34.020Z,1.43
2017-01-23T11:38:34.023Z,1.47
2017-01-23T11:39:34.011Z,1.54
2017-01-23T11:40:34.038Z,1.5
2017-01-23T11:41:33.999Z,1.47
2017-01-23T11:42:34.019Z,1.46
2017-01-23T11:43:34.030Z,1.43
2017-01-23T11:44:34.030Z,1.51
2017-01-23T11:45:33.998Z,1.52
2017-01-23T11:46:34.029Z,1.47
2017-01-23T11:47:34.039Z,1.51
2017-01-23T11:48:34.029Z,1.5
2017-01-23T11:49:34.020Z,1.6
2017-01-23T11:50:34.106Z,1.39
2017-01-23T11:51:34.016Z,1.47
2017-01-23T11:52:34.012Z,1.64
2017-01-23T11:53:34.009Z,1.47
2017-01-23T11:54:33.993Z,1.61
2017-01-23T11:55:34.018Z,1.54
2017-01-23T11:56:34.026Z,1.52
2017-01-23T11:57:34.037Z,1.5
2017-01-23T11:58:34.012Z,1.51
2017-01-23T11:59:34.014Z,1.68
2017-01-23T12:00:34.037Z,1.61
2017-01-23T12:01:34.026Z,1.61
2017-01-23T12:02:34.079Z,1.61
2017-01-23T12:03:34.014Z,1.6
2017-01-23T12:04:34.021Z,1.52
2017-01-23T12:05:34.037Z,1.6
2017-01-23T12:06:34.078Z,1.73
2017-01-23T12:07:34.069Z,1.61
2017-01-23T12:08:34.030Z,1.71
2017-01-23T12:09:34.022Z,1.6
2017-01-23T12:10:34.057Z,1.62
2017-01-23T12:11:34.039Z,1.75
2017-01-23T12:12:34.386Z,1.62
2017-01-23T12:13:34.071Z,1.64
2017-01-23T12:14:34.080Z,1.72
2017-01-23T12:15:34.104Z,1.76
2017-01-23T12:16:34.087Z,1.73
2017-01-23T12:17:34.045Z,1.64
2017-01-23T12:18:34.147Z,1.65
2017-01-23T12:19:34.023Z,1.82
2017-01-23T12:20:34.094Z,1.71
2017-01-23T12:21:34.029Z,1.79
2017-01-23T12:22:34.149Z,1.75
2017-01-23T12:23:34.070Z,1.72
2017-01-23T12:24:34.068Z,1.62
2017-01-23T12:25:34.056Z,1.69
2017-01-23T12:26:34.075Z,1.54
2017-01-23T12:27:34.053Z,1.65
2017-01-23T12:28:34.091Z,1.62
2017-01-23T12:29:34.140Z,1.68
2017-01-23T12:30:34.057Z,1.64
2017-01-23T12:31:34.056Z,1.72
2017-01-23T12:32:34.090Z,1.68
2017-01-23T12:33:34.038Z,1.62
2017-01-23T12:34:34.057Z,1.71
2017-01-23T12:35:34.042Z,1.65
2017-01-23T12:36:34.034Z,1.73
2017-01-23T12:37:34.062Z,1.72
2017-01-23T12:38:34.044Z,1.72
2017-01-23T12:39:34.047Z,1.69
2017-01-23T12:40:34.061Z,1.75
2017-01-23T12:41:34.049Z,1.68
2017-01-23T12:42:34.134Z,1.73
2017-01-23T12:43:34.074Z,1.76
2017-01-23T12:44:34.097Z,1.72
2017-01-23T12:45:34.045Z,1.71
2017-01-23T12:46:34.053Z,1.78
2017-01-23T12:47:34.046Z,1.73
2017-01-23T12:48:34.054Z,1.75
2017-01-23T12:49:34.087Z,1.71
2017-01-23T12:50:34.053Z,1.57
2017-01-23T12:51:34.043Z,1.64
2017-01-23T12:52:34.047Z,1.75
2017-01-23T12:53:34.078Z,1.73
2017-01-23T12:54:34.062Z,1.68
2017-01-23T12:55:34.168Z,1.76
2017-01-23T12:56:34.059Z,1.72
2017-01-23T12:57:34.053Z,1.79
2017-01-23T12:58:34.054Z,1.68
2017-01-23T12:59:34.211Z,1.68
2017-01-23T13:00:34.158Z,1.62
2017-01-23T13:01:34.141Z,1.68
2017-01-23T13:02:34.083Z,1.75
2017-01-23T13:03:34.280Z,1.62
2017-01-23T13:04:34.160Z,1.79
2017-01-23T13:05:34.256Z,1.75
2017-01-23T13:06:34.132Z,1.75
2017-01-23T13:07:34.074Z,1.78
2017-01-23T13:08:34.059Z,1.83